Time;durP1;ratioP1;P1;durP2;ratioP2;P2;SDS_P1;SDS_P2;PMS_P1;PMS_P2;Temp;Humidity;BMP_temperature;BMP_pressure;BME280_temperature;BME280_humidity;BME280_pressure;Samples;Min_cycle;Max_cycle;Signal;HPM_P1;HPM_P2
2022/07/26 00:02:09;;;;;;;0.13;0.13;;;19.00;99.90;;;;;;5069414;28;20041;-87
2022/07/26 00:04:37;;;;;;;0.20;0.20;;;19.10;99.90;;;;;;5091561;28;20040;-88
2022/07/26 00:07:03;;;;;;;0.10;0.10;;;19.20;99.90;;;;;;5076327;28;20128;-85
2022/07/26 00:09:31;;;;;;;0.20;0.20;;;19.10;99.90;;;;;;5066339;28;20460;-88
2022/07/26 00:11:57;;;;;;;0.20;0.20;;;19.10;99.90;;;;;;5058354;28;20074;-87
2022/07/26 00:14:23;;;;;;;0.20;0.20;;;19.10;99.90;;;;;;5064679;28;20477;-88
2022/07/26 00:16:48;;;;;;;0.10;0.10;;;19.00;99.90;;;;;;5061306;28;20047;-89
2022/07/26 00:19:14;;;;;;;0.13;0.13;;;19.10;99.90;;;;;;5067418;28;20037;-87
2022/07/26 00:21:43;;;;;;;0.20;0.20;;;19.10;99.90;;;;;;5057027;28;20345;-87
2022/07/26 00:24:14;;;;;;;0.20;0.20;;;19.10;99.90;;;;;;5071334;28;20047;-86
2022/07/26 00:26:40;;;;;;;0.20;0.20;;;19.10;99.90;;;;;;5053893;28;20120;-88
2022/07/26 00:29:08;;;;;;;0.20;0.20;;;19.10;99.90;;;;;;5069189;28;20076;-85
2022/07/26 00:31:36;;;;;;;0.20;0.20;;;19.10;99.90;;;;;;5072738;28;20112;-89
2022/07/26 00:34:02;;;;;;;0.20;0.20;;;19.10;99.90;;;;;;5069836;28;20097;-88
2022/07/26 00:36:28;;;;;;;0.20;0.20;;;19.10;99.90;;;;;;5057444;28;20133;-87
2022/07/26 00:38:54;;;;;;;0.20;0.20;;;19.10;99.90;;;;;;5081619;28;20155;-87
2022/07/26 00:41:19;;;;;;;0.20;0.20;;;19.10;99.90;;;;;;5070907;28;20044;-88
2022/07/26 00:43:56;;;;;;;0.15;0.15;;;19.10;99.90;;;;;;5069465;28;20040;-89
2022/07/26 00:46:25;;;;;;;0.10;0.10;;;19.10;99.90;;;;;;5063168;28;20628;-87
2022/07/26 00:48:50;;;;;;;0.20;0.20;;;19.10;99.90;;;;;;5071527;28;20123;-88
2022/07/26 00:51:16;;;;;;;0.20;0.20;;;19.10;99.90;;;;;;5083837;28;20693;-86
2022/07/26 00:53:44;;;;;;;0.20;0.20;;;19.10;99.90;;;;;;5073827;28;20037;-87
2022/07/26 00:56:17;;;;;;;0.20;0.20;;;19.10;99.90;;;;;;5055916;28;20041;-88
2022/07/26 00:58:43;;;;;;;0.20;0.20;;;19.10;99.90;;;;;;5069496;28;20638;-86
2022/07/26 01:01:09;;;;;;;0.20;0.20;;;19.10;99.90;;;;;;5064603;28;20045;-86
2022/07/26 01:03:38;;;;;;;0.20;0.20;;;19.10;99.90;;;;;;5062252;28;20390;-86
2022/07/26 01:06:04;;;;;;;0.20;0.20;;;19.10;99.90;;;;;;5068141;28;20063;-87
2022/07/26 01:08:30;;;;;;;0.20;0.20;;;19.10;99.90;;;;;;5067202;28;20174;-88
2022/07/26 01:10:55;;;;;;;0.20;0.20;;;19.10;99.90;;;;;;5070835;28;20115;-86
2022/07/26 01:13:22;;;;;;;0.10;0.10;;;19.10;99.90;;;;;;5070089;28;20043;-87
2022/07/26 01:15:48;;;;;;;0.10;0.10;;;19.10;99.90;;;;;;5070229;28;20044;-87
2022/07/26 01:18:14;;;;;;;0.20;0.20;;;19.10;99.90;;;;;;5082630;28;20047;-87
2022/07/26 01:20:40;;;;;;;0.20;0.20;;;19.10;99.90;;;;;;5072648;28;20404;-87
2022/07/26 01:23:07;;;;;;;0.20;0.20;;;19.10;99.90;;;;;;5088258;28;20083;-87
2022/07/26 01:25:38;;;;;;;0.20;0.20;;;19.10;99.90;;;;;;5068911;28;20040;-86
2022/07/26 01:28:03;;;;;;;0.20;0.20;;;19.10;99.90;;;;;;5073746;28;20123;-88
2022/07/26 01:30:29;;;;;;;0.20;0.20;;;19.10;99.90;;;;;;5068281;28;20128;-89
2022/07/26 01:32:55;;;;;;;0.20;0.20;;;19.10;99.90;;;;;;5076573;28;20039;-86
2022/07/26 01:35:21;;;;;;;0.20;0.20;;;19.10;99.90;;;;;;5075688;28;20044;-88
2022/07/26 01:37:47;;;;;;;0.20;0.20;;;19.10;99.90;;;;;;5073147;28;20086;-88
2022/07/26 01:40:15;;;;;;;0.20;0.20;;;19.10;99.90;;;;;;5082454;28;20040;-87
2022/07/26 01:42:41;;;;;;;0.20;0.20;;;19.10;99.90;;;;;;5074189;28;20043;-87
2022/07/26 01:45:08;;;;;;;0.10;0.10;;;19.10;99.90;;;;;;5057044;28;20049;-87
2022/07/26 01:47:34;;;;;;;0.20;0.20;;;19.10;99.90;;;;;;5076752;28;20496;-88
2022/07/26 01:50:00;;;;;;;0.20;0.20;;;19.10;99.90;;;;;;5088484;28;20044;-86
2022/07/26 01:52:34;;;;;;;0.10;0.10;;;19.10;99.90;;;;;;5085206;28;20040;-87
2022/07/26 01:55:00;;;;;;;0.20;0.20;;;19.10;99.90;;;;;;5085534;28;20623;-87
2022/07/26 01:57:31;;;;;;;0.20;0.20;;;19.10;99.90;;;;;;5059220;28;20128;-85
2022/07/26 01:59:57;;;;;;;;;;;19.10;99.90;;;;;;5069839;28;20042;-86
2022/07/26 02:02:23;;;;;;;0.20;0.20;;;19.10;99.90;;;;;;5065571;28;19921;-86
2022/07/26 02:04:58;;;;;;;0.20;0.20;;;19.00;99.90;;;;;;5064676;28;20048;-87
2022/07/26 02:07:31;;;;;;;0.15;0.15;;;19.00;99.90;;;;;;5074682;28;20127;-85
2022/07/26 02:10:00;;;;;;;0.20;0.20;;;19.00;99.90;;;;;;5076921;28;20783;-87
2022/07/26 02:12:26;;;;;;;0.20;0.20;;;19.00;99.90;;;;;;5073724;28;20127;-87
2022/07/26 02:14:52;;;;;;;0.20;0.20;;;19.00;99.90;;;;;;5078110;28;20559;-87
2022/07/26 02:17:17;;;;;;;0.20;0.20;;;19.00;99.90;;;;;;5064990;28;20045;-88
2022/07/26 02:19:43;;;;;;;0.20;0.20;;;19.00;99.90;;;;;;5067618;28;20032;-88
2022/07/26 02:22:12;;;;;;;0.20;0.20;;;19.00;99.90;;;;;;5068282;28;20064;-87
2022/07/26 02:24:38;;;;;;;0.20;0.20;;;19.00;99.90;;;;;;5067161;28;20045;-82
2022/07/26 02:27:04;;;;;;;0.20;0.20;;;19.00;99.90;;;;;;5064947;28;20119;-83
2022/07/26 02:29:30;;;;;;;0.20;0.20;;;18.90;99.90;;;;;;5077175;28;20400;-85
2022/07/26 02:31:59;;;;;;;0.10;0.10;;;18.60;99.90;;;;;;5063627;28;20044;-83
2022/07/26 02:34:25;;;;;;;0.20;0.20;;;18.50;99.90;;;;;;5071734;28;20051;-86
2022/07/26 02:36:51;;;;;;;0.20;0.20;;;18.40;99.90;;;;;;5065230;28;20094;-85
2022/07/26 02:39:17;;;;;;;0.15;0.15;;;18.20;99.90;;;;;;5063628;28;20052;-85
2022/07/26 02:41:43;;;;;;;0.10;0.10;;;18.10;99.90;;;;;;5065689;28;20087;-85
2022/07/26 02:44:08;;;;;;;0.20;0.20;;;18.00;99.90;;;;;;5062696;28;20072;-84
2022/07/26 02:46:35;;;;;;;0.20;0.20;;;17.90;99.90;;;;;;5067027;28;20055;-85
2022/07/26 02:49:00;;;;;;;0.20;0.20;;;17.70;99.90;;;;;;5080059;28;20535;-86
2022/07/26 02:51:27;;;;;;;0.20;0.20;;;17.60;99.90;;;;;;5071047;28;20075;-87
2022/07/26 02:53:52;;;;;;;0.10;0.10;;;17.60;99.90;;;;;;5076236;28;20048;-87
2022/07/26 02:56:19;;;;;;;0.20;0.20;;;17.50;99.90;;;;;;5088502;28;20032;-87
2022/07/26 02:58:45;;;;;;;0.10;0.10;;;17.50;99.90;;;;;;5063379;28;20132;-87
2022/07/26 03:01:11;;;;;;;0.20;0.20;;;17.40;99.90;;;;;;5066777;28;20096;-86
2022/07/26 03:03:37;;;;;;;0.20;0.20;;;17.40;99.90;;;;;;5071471;28;20055;-85
2022/07/26 03:06:05;;;;;;;0.20;0.20;;;17.30;99.90;;;;;;5066848;28;20072;-85
2022/07/26 03:08:31;;;;;;;0.20;0.20;;;17.30;99.90;;;;;;5064184;28;20074;-85
2022/07/26 03:10:58;;;;;;;0.20;0.20;;;17.30;99.90;;;;;;5075636;28;20041;-88
2022/07/26 03:13:24;;;;;;;0.20;0.20;;;17.20;99.90;;;;;;5061015;28;20151;-85
2022/07/26 03:15:52;;;;;;;0.10;0.10;;;17.20;99.90;;;;;;5070736;28;20484;-86
2022/07/26 03:18:18;;;;;;;0.20;0.20;;;17.10;99.90;;;;;;5070326;28;20046;-86
2022/07/26 03:20:44;;;;;;;0.20;0.20;;;17.20;99.90;;;;;;5064611;28;20127;-85
2022/07/26 03:23:09;;;;;;;0.20;0.20;;;17.10;99.90;;;;;;5069428;28;20082;-86
2022/07/26 03:25:35;;;;;;;0.20;0.20;;;17.10;99.90;;;;;;5067460;28;20044;-86
2022/07/26 03:28:00;;;;;;;0.20;0.20;;;17.10;99.90;;;;;;5066738;28;20497;-86
2022/07/26 03:30:26;;;;;;;0.17;0.17;;;17.10;99.90;;;;;;5075658;28;20115;-85
2022/07/26 03:32:51;;;;;;;0.10;0.10;;;17.10;99.90;;;;;;5082407;28;20028;-85
2022/07/26 03:35:17;;;;;;;0.20;0.20;;;17.10;99.90;;;;;;5077010;28;20072;-84
2022/07/26 03:37:43;;;;;;;0.20;0.20;;;17.10;99.90;;;;;;5066717;28;20056;-84
2022/07/26 03:40:09;;;;;;;0.20;0.20;;;17.00;99.90;;;;;;5062342;28;20044;-84
2022/07/26 03:42:38;;;;;;;0.20;0.20;;;17.00;99.90;;;;;;5070124;28;20481;-86
2022/07/26 03:45:04;;;;;;;0.20;0.20;;;17.00;99.90;;;;;;5063634;28;20540;-84
2022/07/26 03:47:30;;;;;;;0.10;0.10;;;16.90;99.90;;;;;;5067165;28;20040;-86
2022/07/26 03:49:55;;;;;;;0.20;0.20;;;16.90;99.90;;;;;;5065664;28;20677;-84
2022/07/26 03:52:21;;;;;;;0.10;0.10;;;16.90;99.90;;;;;;5052842;28;20056;-84
2022/07/26 03:54:46;;;;;;;0.17;0.17;;;16.90;99.90;;;;;;5059070;28;20032;-85
2022/07/26 03:57:12;;;;;;;0.10;0.10;;;16.90;99.90;;;;;;5073110;28;20044;-84
2022/07/26 03:59:38;;;;;;;0.20;0.20;;;16.90;99.90;;;;;;5079311;28;20131;-85
2022/07/26 04:02:03;;;;;;;0.20;0.20;;;16.90;99.90;;;;;;5065225;28;20609;-84
2022/07/26 04:04:29;;;;;;;0.20;0.20;;;16.90;99.90;;;;;;5064290;28;20041;-84
2022/07/26 04:06:55;;;;;;;0.10;0.10;;;16.90;99.90;;;;;;5070350;28;20048;-84
2022/07/26 04:09:21;;;;;;;0.20;0.20;;;16.80;99.90;;;;;;5064987;28;20066;-84
2022/07/26 04:11:47;;;;;;;0.17;0.17;;;16.90;99.90;;;;;;5066699;28;20045;-84
2022/07/26 04:14:13;;;;;;;0.20;0.20;;;16.90;99.90;;;;;;5069271;28;20039;-85
2022/07/26 04:16:39;;;;;;;0.10;0.10;;;16.90;99.90;;;;;;5065970;28;20044;-84
2022/07/26 04:19:05;;;;;;;0.20;0.20;;;16.80;99.90;;;;;;5069432;28;20487;-83
2022/07/26 04:21:30;;;;;;;0.10;0.10;;;16.80;99.90;;;;;;5066852;28;20408;-83
2022/07/26 04:23:56;;;;;;;0.20;0.20;;;16.80;99.90;;;;;;5082528;28;20045;-83
2022/07/26 04:26:22;;;;;;;0.20;0.20;;;16.90;99.90;;;;;;5063811;28;20036;-83
2022/07/26 04:28:48;;;;;;;0.20;0.20;;;16.80;99.90;;;;;;5068697;28;20994;-83
2022/07/26 04:31:14;;;;;;;0.20;0.20;;;16.80;99.90;;;;;;5071405;28;20467;-84
2022/07/26 04:33:39;;;;;;;0.10;0.10;;;16.80;99.90;;;;;;5063467;28;20068;-84
2022/07/26 04:36:05;;;;;;;0.17;0.17;;;16.70;99.90;;;;;;5061529;28;20926;-84
2022/07/26 04:38:31;;;;;;;0.20;0.20;;;16.70;99.90;;;;;;5064510;28;20041;-83
2022/07/26 04:41:00;;;;;;;0.20;0.20;;;16.70;99.90;;;;;;5060015;28;20449;-83
2022/07/26 04:43:25;;;;;;;0.20;0.20;;;16.70;99.90;;;;;;5065384;28;20102;-84
2022/07/26 04:45:51;;;;;;;0.20;0.20;;;16.80;99.90;;;;;;5061092;28;20045;-83
2022/07/26 04:48:17;;;;;;;0.22;0.22;;;16.60;99.90;;;;;;5085369;28;20271;-84
2022/07/26 04:50:43;;;;;;;0.20;0.20;;;16.60;99.90;;;;;;5063649;28;20037;-86
2022/07/26 04:53:10;;;;;;;0.10;0.10;;;16.60;99.90;;;;;;5063277;28;20045;-84
2022/07/26 04:55:36;;;;;;;0.20;0.20;;;16.60;99.90;;;;;;5079814;28;20055;-84
2022/07/26 04:58:03;;;;;;;0.20;0.20;;;16.60;99.90;;;;;;5062120;28;20385;-85
2022/07/26 05:00:29;;;;;;;0.20;0.20;;;16.60;99.90;;;;;;5069894;28;20109;-84
2022/07/26 05:02:57;;;;;;;0.20;0.20;;;16.70;99.90;;;;;;5062037;28;20040;-84
2022/07/26 05:05:25;;;;;;;0.20;0.20;;;16.70;99.90;;;;;;5060676;28;20052;-85
2022/07/26 05:07:52;;;;;;;0.20;0.20;;;16.70;99.90;;;;;;5078953;28;20032;-84
2022/07/26 05:10:20;;;;;;;0.10;0.10;;;16.70;99.90;;;;;;5065570;28;20090;-84
2022/07/26 05:12:47;;;;;;;0.10;0.10;;;16.70;99.90;;;;;;5065156;28;20036;-84
2022/07/26 05:15:15;;;;;;;0.10;0.10;;;16.70;99.90;;;;;;5077183;28;20083;-84
2022/07/26 05:17:42;;;;;;;0.20;0.20;;;16.70;99.90;;;;;;5069195;28;20119;-84
2022/07/26 05:20:10;;;;;;;0.17;0.17;;;16.70;99.90;;;;;;5088722;28;20074;-85
2022/07/26 05:22:36;;;;;;;0.10;0.10;;;16.70;99.90;;;;;;5073643;28;20049;-84
2022/07/26 05:25:05;;;;;;;0.20;0.20;;;16.70;99.90;;;;;;5069654;28;20036;-85
2022/07/26 05:27:31;;;;;;;0.20;0.20;;;16.70;99.90;;;;;;5071147;28;20048;-83
2022/07/26 05:29:57;;;;;;;0.20;0.20;;;16.70;99.90;;;;;;5070141;28;20649;-83
2022/07/26 05:32:23;;;;;;;0.10;0.10;;;16.60;99.90;;;;;;5059335;28;20041;-83
2022/07/26 05:34:49;;;;;;;0.20;0.20;;;16.60;99.90;;;;;;5067907;28;20044;-83
2022/07/26 05:37:15;;;;;;;0.10;0.10;;;16.60;99.90;;;;;;5088363;28;20051;-86
2022/07/26 05:39:43;;;;;;;0.10;0.10;;;16.50;99.90;;;;;;5070760;28;20137;-83
2022/07/26 05:42:09;;;;;;;0.20;0.20;;;16.50;99.90;;;;;;5060074;28;20488;-85
2022/07/26 05:44:35;;;;;;;0.20;0.20;;;16.50;99.90;;;;;;5058859;28;20137;-85
2022/07/26 05:47:04;;;;;;;0.20;0.20;;;16.50;99.90;;;;;;5059822;28;20139;-83
2022/07/26 05:49:29;;;;;;;0.20;0.20;;;16.40;99.90;;;;;;5081484;28;20142;-84
2022/07/26 05:51:55;;;;;;;0.20;0.20;;;16.40;99.90;;;;;;5074751;28;20076;-84
2022/07/26 05:54:21;;;;;;;0.20;0.20;;;16.40;99.90;;;;;;5060112;28;20604;-85
2022/07/26 05:56:47;;;;;;;0.20;0.20;;;16.40;99.90;;;;;;5064560;28;20037;-82
2022/07/26 05:59:12;;;;;;;0.13;0.13;;;16.40;99.90;;;;;;5083721;28;20084;-84
2022/07/26 06:01:38;;;;;;;0.20;0.20;;;16.40;99.90;;;;;;5066683;28;20061;-82
2022/07/26 06:04:04;;;;;;;0.20;0.20;;;16.50;99.90;;;;;;5091542;28;20044;-83
2022/07/26 06:06:30;;;;;;;0.17;0.17;;;16.50;99.90;;;;;;5074853;28;20044;-83
2022/07/26 06:08:55;;;;;;;0.20;0.20;;;16.40;99.90;;;;;;5072753;28;20098;-81
2022/07/26 06:11:21;;;;;;;0.20;0.20;;;16.50;99.90;;;;;;5064095;28;20440;-83
2022/07/26 06:13:47;;;;;;;0.20;0.20;;;16.60;99.90;;;;;;5066539;28;20690;-84
2022/07/26 06:16:12;;;;;;;0.20;0.20;;;16.70;99.90;;;;;;5063167;28;20036;-84
2022/07/26 06:18:38;;;;;;;0.10;0.10;;;16.60;99.90;;;;;;5082920;28;20043;-84
2022/07/26 06:21:04;;;;;;;0.20;0.20;;;16.70;99.90;;;;;;5078222;28;20044;-84
2022/07/26 06:23:30;;;;;;;0.20;0.20;;;16.70;99.90;;;;;;5069563;28;20036;-82
2022/07/26 06:25:55;;;;;;;0.10;0.10;;;16.70;99.90;;;;;;5072270;28;20033;-85
2022/07/26 06:28:21;;;;;;;0.10;0.10;;;16.70;99.90;;;;;;5075323;28;20056;-85
2022/07/26 06:30:46;;;;;;;0.10;0.10;;;16.70;99.90;;;;;;5062611;28;20128;-84
2022/07/26 06:33:12;;;;;;;0.20;0.20;;;16.70;99.90;;;;;;5066457;28;20127;-85
2022/07/26 06:35:38;;;;;;;0.63;0.38;;;16.80;99.90;;;;;;5087726;28;20544;-88
2022/07/26 06:38:07;;;;;;;0.10;0.10;;;16.80;99.90;;;;;;5075400;28;20055;-87
2022/07/26 06:40:33;;;;;;;0.20;0.20;;;16.70;99.90;;;;;;5066919;28;20059;-87
2022/07/26 06:43:00;;;;;;;0.20;0.20;;;16.70;99.90;;;;;;5072450;28;20405;-83
2022/07/26 06:45:26;;;;;;;0.20;0.20;;;16.70;99.90;;;;;;5068585;28;20056;-87
2022/07/26 06:47:52;;;;;;;0.17;0.17;;;16.70;99.90;;;;;;5058104;28;20052;-86
2022/07/26 06:50:18;;;;;;;0.15;0.15;;;16.70;99.90;;;;;;5072679;28;20106;-86
2022/07/26 06:52:44;;;;;;;0.10;0.10;;;16.60;99.90;;;;;;5068901;28;20123;-85
2022/07/26 06:55:09;;;;;;;0.10;0.10;;;16.70;99.90;;;;;;5069764;28;20052;-84
2022/07/26 06:57:35;;;;;;;0.17;0.17;;;16.70;99.90;;;;;;5071918;28;20392;-84
2022/07/26 07:00:04;;;;;;;0.13;0.13;;;16.70;99.90;;;;;;5072755;28;20088;-86
2022/07/26 07:02:30;;;;;;;0.20;0.20;;;16.80;99.90;;;;;;5073122;28;20048;-83
2022/07/26 07:04:55;;;;;;;0.20;0.20;;;16.80;99.90;;;;;;5071636;28;20123;-82
2022/07/26 07:07:21;;;;;;;0.20;0.20;;;16.80;99.90;;;;;;5068566;28;20048;-84
2022/07/26 07:09:46;;;;;;;0.10;0.10;;;16.80;99.90;;;;;;5068372;28;20056;-85
2022/07/26 07:12:14;;;;;;;0.17;0.17;;;16.80;99.90;;;;;;5070901;28;20098;-84
2022/07/26 07:14:39;;;;;;;0.20;0.20;;;16.80;99.90;;;;;;5070822;28;20134;-84
2022/07/26 07:17:06;;;;;;;0.10;0.10;;;16.80;99.90;;;;;;5082067;28;20608;-84
2022/07/26 07:19:35;;;;;;;0.10;0.10;;;16.80;99.90;;;;;;5051019;28;20128;-84
2022/07/26 07:22:02;;;;;;;0.20;0.20;;;16.80;99.90;;;;;;5051807;28;20091;-84
2022/07/26 07:24:28;;;;;;;0.20;0.20;;;16.80;99.90;;;;;;5063969;28;20399;-85
2022/07/26 07:26:53;;;;;;;0.20;0.20;;;16.80;99.90;;;;;;5068493;28;20047;-84
2022/07/26 07:29:19;;;;;;;0.20;0.20;;;16.90;99.90;;;;;;5068383;28;20044;-85
2022/07/26 07:31:48;;;;;;;0.20;0.20;;;16.90;99.90;;;;;;5071280;28;20413;-84
2022/07/26 07:34:14;;;;;;;0.10;0.10;;;17.00;99.90;;;;;;5069600;28;20048;-84
2022/07/26 07:36:40;;;;;;;0.20;0.20;;;17.10;99.90;;;;;;5070411;28;20038;-84
2022/07/26 07:39:06;;;;;;;0.20;0.20;;;17.20;99.90;;;;;;5071437;28;20044;-84
2022/07/26 07:41:36;;;;;;;0.10;0.10;;;17.20;99.90;;;;;;5066389;28;20040;-86
2022/07/26 07:44:03;;;;;;;0.20;0.20;;;17.20;99.90;;;;;;5060696;28;20373;-87
2022/07/26 07:46:28;;;;;;;0.20;0.20;;;17.20;99.90;;;;;;5067427;28;20070;-83
2022/07/26 07:48:54;;;;;;;0.15;0.15;;;17.10;99.90;;;;;;5058053;28;20485;-84
2022/07/26 07:51:20;;;;;;;0.20;0.20;;;17.10;99.90;;;;;;5049794;28;20534;-85
2022/07/26 07:53:46;;;;;;;0.20;0.20;;;17.10;99.90;;;;;;5050518;28;20047;-85
2022/07/26 07:56:11;;;;;;;0.17;0.17;;;17.00;99.90;;;;;;5061726;28;20037;-83
2022/07/26 07:58:40;;;;;;;0.13;0.13;;;17.00;99.90;;;;;;5072379;28;20174;-85
2022/07/26 08:01:06;;;;;;;0.20;0.20;;;17.00;99.90;;;;;;5071341;28;20048;-85
2022/07/26 08:03:32;;;;;;;0.10;0.10;;;16.90;99.90;;;;;;5071222;28;20090;-87
2022/07/26 08:05:58;;;;;;;0.20;0.20;;;17.00;99.90;;;;;;5082735;28;20446;-82
2022/07/26 08:08:23;;;;;;;0.10;0.10;;;17.10;99.90;;;;;;5067778;28;20064;-82
2022/07/26 08:10:50;;;;;;;0.10;0.10;;;16.90;99.90;;;;;;5052310;28;20052;-82
2022/07/26 08:13:16;;;;;;;0.20;0.20;;;16.90;99.90;;;;;;5058905;28;20048;-83
2022/07/26 08:15:41;;;;;;;0.20;0.20;;;16.90;99.90;;;;;;5068633;28;20441;-82
2022/07/26 08:18:07;;;;;;;0.10;0.10;;;16.90;99.90;;;;;;5067210;28;20078;-83
2022/07/26 08:20:32;;;;;;;0.10;0.10;;;16.90;99.90;;;;;;5070595;28;20029;-82
2022/07/26 08:23:01;;;;;;;0.10;0.10;;;16.90;99.90;;;;;;5069312;28;20049;-84
2022/07/26 08:25:27;;;;;;;0.10;0.10;;;17.00;99.90;;;;;;5068909;28;20041;-83
2022/07/26 08:27:53;;;;;;;0.10;0.10;;;17.10;99.90;;;;;;5069190;28;20639;-82
2022/07/26 08:30:18;;;;;;;0.20;0.20;;;17.20;99.90;;;;;;5066652;28;20036;-82
2022/07/26 08:32:44;;;;;;;0.20;0.20;;;17.20;99.90;;;;;;5070312;28;20133;-83
2022/07/26 08:35:12;;;;;;;0.20;0.20;;;17.30;99.90;;;;;;5069922;28;20047;-82
2022/07/26 08:37:38;;;;;;;0.20;0.20;;;17.00;99.90;;;;;;5070297;28;20040;-83
2022/07/26 08:40:05;;;;;;;0.20;0.20;;;17.40;99.90;;;;;;5072734;28;20044;-82
2022/07/26 08:42:31;;;;;;;0.20;0.20;;;17.40;99.90;;;;;;5074186;28;20492;-83
2022/07/26 08:44:56;;;;;;;0.10;0.10;;;17.50;99.90;;;;;;5064586;28;20052;-83
2022/07/26 08:47:22;;;;;;;0.10;0.10;;;17.40;99.90;;;;;;5052437;28;20048;-84
2022/07/26 08:49:48;;;;;;;0.20;0.20;;;17.40;99.90;;;;;;5053779;28;20475;-84
2022/07/26 08:52:14;;;;;;;0.20;0.20;;;17.40;99.90;;;;;;5055762;28;20037;-82
2022/07/26 08:54:51;;;;;;;0.20;0.20;;;17.40;99.90;;;;;;5072222;28;20132;-83
2022/07/26 08:57:17;;;;;;;0.20;0.20;;;17.30;99.90;;;;;;5074025;28;20480;-82
2022/07/26 08:59:43;;;;;;;0.20;0.20;;;17.40;99.90;;;;;;5057766;28;20041;-83
2022/07/26 09:02:11;;;;;;;0.20;0.20;;;17.40;99.90;;;;;;5059769;28;20040;-83
2022/07/26 09:04:43;;;;;;;0.20;0.20;;;17.40;99.90;;;;;;5072625;28;20131;-84
2022/07/26 09:07:17;;;;;;;0.20;0.20;;;17.40;99.90;;;;;;5073121;28;20419;-85
2022/07/26 09:09:58;;;;;;;0.20;0.20;;;17.40;99.90;;;;;;5071957;28;20052;-82
2022/07/26 09:12:25;;;;;;;0.20;0.20;;;17.30;99.90;;;;;;5072339;28;20056;-83
2022/07/26 09:14:52;;;;;;;0.20;0.20;;;17.30;99.90;;;;;;5072225;28;20044;-82
2022/07/26 09:17:22;;;;;;;0.10;0.10;;;17.30;99.90;;;;;;5071723;28;20048;-84
2022/07/26 09:20:08;;;;;;;0.15;0.15;;;17.30;99.90;;;;;;5072889;28;20045;-85
2022/07/26 09:22:35;;;;;;;0.20;0.20;;;17.30;99.90;;;;;;5072089;28;20044;-85
2022/07/26 09:25:01;;;;;;;0.20;0.20;;;17.30;99.90;;;;;;5072508;28;20051;-83
2022/07/26 09:27:37;;;;;;;0.20;0.20;;;17.50;99.90;;;;;;5073019;28;20040;-85
2022/07/26 09:30:08;;;;;;;0.20;0.20;;;17.40;99.90;;;;;;5054673;28;20389;-84
2022/07/26 09:32:35;;;;;;;0.20;0.20;;;17.40;99.90;;;;;;5070611;28;20055;-82
2022/07/26 09:35:20;;;;;;;0.20;0.20;;;17.40;99.90;;;;;;5071359;28;20060;-84
2022/07/26 09:37:47;;;;;;;0.20;0.20;;;17.40;99.90;;;;;;5074172;28;20048;-84
2022/07/26 09:40:14;;;;;;;0.15;0.15;;;17.40;99.90;;;;;;5072029;28;20040;-85
2022/07/26 09:43:01;;;;;;;0.20;0.20;;;17.40;99.90;;;;;;5087162;28;20040;-85
2022/07/26 09:45:28;;;;;;;0.20;0.20;;;17.40;99.90;;;;;;5067665;28;20111;-85
2022/07/26 09:47:54;;;;;;;0.20;0.20;;;17.40;99.90;;;;;;5050621;28;20033;-84
2022/07/26 09:50:26;;;;;;;0.20;0.20;;;17.40;99.90;;;;;;5053789;28;20494;-84
2022/07/26 09:53:07;;;;;;;0.10;0.10;;;17.40;99.90;;;;;;5052805;28;20496;-84
2022/07/26 09:55:35;;;;;;;;;;;17.50;99.90;;;;;;5052169;28;20033;-84
2022/07/26 09:58:02;;;;;;;0.10;0.10;;;17.50;99.90;;;;;;5059411;28;19935;-85
2022/07/26 10:00:29;;;;;;;0.20;0.20;;;17.50;99.90;;;;;;5058146;28;20043;-83
2022/07/26 10:02:55;;;;;;;0.20;0.20;;;17.60;99.90;;;;;;5072154;28;20129;-84
2022/07/26 10:05:21;;;;;;;0.20;0.20;;;17.60;99.90;;;;;;5073014;28;20589;-88
2022/07/26 10:07:51;;;;;;;0.20;0.20;;;17.60;99.90;;;;;;5072962;28;20050;-85
2022/07/26 10:10:25;;;;;;;0.20;0.20;;;17.60;99.90;;;;;;5071449;28;20040;-85
2022/07/26 10:12:51;;;;;;;0.20;0.20;;;17.60;99.90;;;;;;5069182;28;20064;-84
2022/07/26 10:15:36;;;;;;;0.20;0.20;;;17.60;99.90;;;;;;5072052;28;20041;-86
2022/07/26 10:18:04;;;;;;;0.13;0.13;;;17.60;99.90;;;;;;5073478;28;20044;-85
2022/07/26 10:20:41;;;;;;;0.20;0.20;;;17.80;99.90;;;;;;5079921;28;20029;-85
2022/07/26 10:23:36;;;;;;;0.20;0.20;;;17.80;99.90;;;;;;5084521;28;20048;-85
2022/07/26 10:26:03;;;;;;;0.10;0.10;;;17.80;99.90;;;;;;5071279;28;20110;-84
2022/07/26 10:28:30;;;;;;;0.17;0.17;;;17.90;99.90;;;;;;5063390;28;20041;-85
2022/07/26 10:31:21;;;;;;;0.10;0.10;;;17.90;99.90;;;;;;5067603;28;20041;-88
2022/07/26 10:33:48;;;;;;;0.20;0.20;;;18.00;99.90;;;;;;5058419;28;20051;-84
2022/07/26 10:36:32;;;;;;;0.20;0.20;;;18.10;99.90;;;;;;5051031;28;20133;-84
2022/07/26 10:39:15;;;;;;;0.20;0.20;;;18.20;99.90;;;;;;5050875;28;20067;-86
2022/07/26 10:41:44;;;;;;;0.10;0.10;;;18.30;99.90;;;;;;5052536;28;20048;-85
2022/07/26 10:44:22;;;;;;;0.15;0.15;;;18.30;99.90;;;;;;5071876;28;20056;-83
2022/07/26 10:47:13;;;;;;;0.20;0.20;;;18.40;99.90;;;;;;5061506;28;20421;-85
2022/07/26 10:49:56;;;;;;;0.20;0.20;;;18.40;99.90;;;;;;5051907;28;20045;-87
2022/07/26 10:52:23;;;;;;;0.20;0.20;;;18.60;99.90;;;;;;5051505;28;20048;-85
2022/07/26 10:54:58;;;;;;;0.17;0.17;;;18.60;99.90;;;;;;5063765;28;20048;-85
2022/07/26 10:57:29;;;;;;;0.20;0.20;;;18.60;99.90;;;;;;5071041;28;20086;-84
2022/07/26 10:59:56;;;;;;;0.20;0.20;;;18.70;99.90;;;;;;5061315;28;20084;-85
2022/07/26 11:02:27;;;;;;;0.17;0.17;;;18.80;99.90;;;;;;5067966;28;20045;-85
2022/07/26 11:05:03;;;;;;;0.20;0.20;;;18.90;99.90;;;;;;5074117;28;20063;-86
2022/07/26 11:07:30;;;;;;;0.10;0.10;;;19.00;99.90;;;;;;5079966;28;20126;-86
2022/07/26 11:10:00;;;;;;;0.10;0.10;;;19.00;99.90;;;;;;5062775;28;20040;-86
2022/07/26 11:12:26;;;;;;;0.20;0.20;;;19.00;99.90;;;;;;5056808;28;20624;-84
2022/07/26 11:14:53;;;;;;;0.20;0.20;;;19.00;99.90;;;;;;5051515;28;20041;-88
2022/07/26 11:17:30;;;;;;;0.10;0.10;;;18.90;99.90;;;;;;5051696;28;20049;-85
2022/07/26 11:19:56;;;;;;;0.20;0.20;;;19.10;99.90;;;;;;5049529;28;20508;-85
2022/07/26 11:22:30;;;;;;;0.10;0.10;;;19.10;99.90;;;;;;5050534;28;20198;-87
2022/07/26 11:24:56;;;;;;;0.20;0.20;;;19.20;99.90;;;;;;5056855;28;20585;-86
2022/07/26 11:27:22;;;;;;;0.20;0.20;;;19.10;99.90;;;;;;5070180;28;20562;-87
2022/07/26 11:29:48;;;;;;;0.10;0.10;;;19.00;99.90;;;;;;5065931;28;20423;-85
2022/07/26 11:32:19;;;;;;;0.20;0.20;;;19.10;99.90;;;;;;5070325;28;20106;-85
2022/07/26 11:34:45;;;;;;;0.10;0.10;;;19.10;99.90;;;;;;5070335;28;20051;-88
2022/07/26 11:37:11;;;;;;;0.15;0.15;;;19.20;99.90;;;;;;5069248;28;20048;-88
2022/07/26 11:39:37;;;;;;;0.20;0.20;;;19.20;99.90;;;;;;5069503;28;20051;-90
2022/07/26 11:42:06;;;;;;;0.20;0.20;;;19.30;99.90;;;;;;5066653;28;20045;-86
2022/07/26 11:44:34;;;;;;;0.20;0.20;;;19.30;99.90;;;;;;5071095;28;20052;-89
2022/07/26 11:47:10;;;;;;;0.10;0.10;;;19.30;99.90;;;;;;5066064;28;20040;-86
2022/07/26 11:49:35;;;;;;;0.20;0.20;;;19.20;99.90;;;;;;5066593;28;20068;-86
2022/07/26 11:52:03;;;;;;;0.20;0.20;;;19.30;99.90;;;;;;5071976;28;20076;-84
2022/07/26 11:54:30;;;;;;;0.20;0.20;;;19.30;99.90;;;;;;5071514;28;20056;-84
2022/07/26 11:57:03;;;;;;;0.17;0.17;;;19.30;99.90;;;;;;5068978;28;20484;-83
2022/07/26 11:59:34;;;;;;;0.20;0.20;;;19.30;99.90;;;;;;5068787;28;20084;-83
2022/07/26 12:02:03;;;;;;;0.20;0.20;;;19.30;99.90;;;;;;5069230;28;20049;-82
2022/07/26 12:04:32;;;;;;;0.20;0.20;;;19.30;99.90;;;;;;5069330;28;20045;-84
2022/07/26 12:07:07;;;;;;;0.20;0.20;;;19.30;99.90;;;;;;5070663;28;20089;-86
2022/07/26 12:09:45;;;;;;;0.20;0.20;;;19.40;99.90;;;;;;5070966;28;20431;-84
2022/07/26 12:12:26;;;;;;;0.17;0.17;;;19.40;99.90;;;;;;5071576;28;20036;-83
2022/07/26 12:15:06;;;;;;;0.10;0.10;;;19.50;99.90;;;;;;5071669;28;20110;-86
2022/07/26 12:17:33;;;;;;;0.15;0.15;;;19.60;99.90;;;;;;5062458;28;20132;-85
2022/07/26 12:20:13;;;;;;;0.20;0.20;;;19.70;99.90;;;;;;5066070;28;20052;-86
2022/07/26 12:22:57;;;;;;;0.20;0.20;;;19.60;99.90;;;;;;5060377;28;20059;-86
2022/07/26 12:25:27;;;;;;;0.10;0.10;;;19.50;99.90;;;;;;5067940;28;20106;-84
2022/07/26 12:27:53;;;;;;;0.20;0.20;;;19.50;99.90;;;;;;5068431;28;20077;-87
2022/07/26 12:30:19;;;;;;;0.20;0.20;;;19.50;99.90;;;;;;5069227;28;20052;-84
2022/07/26 12:32:55;;;;;;;0.10;0.10;;;19.40;99.90;;;;;;5069117;28;20044;-86
2022/07/26 12:35:34;;;;;;;0.20;0.20;;;19.30;99.90;;;;;;5071886;28;20051;-88
2022/07/26 12:38:00;;;;;;;0.10;0.10;;;19.30;99.90;;;;;;5085849;28;20048;-85
2022/07/26 12:40:29;;;;;;;0.20;0.20;;;19.30;99.90;;;;;;5083411;28;20037;-87
2022/07/26 12:42:57;;;;;;;0.20;0.20;;;19.30;99.90;;;;;;5066729;28;20163;-88
2022/07/26 12:45:31;;;;;;;0.10;0.10;;;19.30;99.90;;;;;;5070360;28;20068;-86
2022/07/26 12:47:58;;;;;;;0.10;0.10;;;19.30;99.90;;;;;;5066737;28;20037;-85
2022/07/26 12:50:27;;;;;;;0.20;0.20;;;19.30;99.90;;;;;;5050134;28;20120;-86
2022/07/26 12:52:59;;;;;;;0.20;0.20;;;19.30;99.90;;;;;;5049202;28;20049;-89